sensor_id;sensor_type;location;lat;lon;timestamp;P1;durP1;ratioP1;P2;durP2;ratioP2
75993;SDS011;64680;53.800;9.988;2023-04-10T00:02:07;39.63;;;17.58;;
75993;SDS011;64680;53.800;9.988;2023-04-10T00:04:33;42.35;;;18.15;;
75993;SDS011;64680;53.800;9.988;2023-04-10T00:06:58;49.00;;;19.40;;
75993;SDS011;64680;53.800;9.988;2023-04-10T00:09:24;49.03;;;19.02;;
75993;SDS011;64680;53.800;9.988;2023-04-10T00:11:50;38.33;;;17.65;;
75993;SDS011;64680;53.800;9.988;2023-04-10T00:14:16;45.78;;;22.20;;
75993;SDS011;64680;53.800;9.988;2023-04-10T00:16:47;41.65;;;18.10;;
75993;SDS011;64680;53.800;9.988;2023-04-10T00:19:13;43.53;;;18.50;;
75993;SDS011;64680;53.800;9.988;2023-04-10T00:21:38;37.25;;;18.15;;
75993;SDS011;64680;53.800;9.988;2023-04-10T00:24:04;38.10;;;17.30;;
75993;SDS011;64680;53.800;9.988;2023-04-10T00:26:30;43.45;;;18.80;;
75993;SDS011;64680;53.800;9.988;2023-04-10T00:28:55;46.22;;;18.48;;
75993;SDS011;64680;53.800;9.988;2023-04-10T00:31:21;38.88;;;18.17;;
75993;SDS011;64680;53.800;9.988;2023-04-10T00:33:53;45.78;;;19.58;;
75993;SDS011;64680;53.800;9.988;2023-04-10T00:36:18;44.00;;;19.17;;
75993;SDS011;64680;53.800;9.988;2023-04-10T00:38:44;46.88;;;19.33;;
75993;SDS011;64680;53.800;9.988;2023-04-10T00:41:10;39.92;;;18.10;;
75993;SDS011;64680;53.800;9.988;2023-04-10T00:43:36;44.35;;;19.20;;
75993;SDS011;64680;53.800;9.988;2023-04-10T00:46:03;43.50;;;18.83;;
75993;SDS011;64680;53.800;9.988;2023-04-10T00:48:28;43.03;;;18.70;;
75993;SDS011;64680;53.800;9.988;2023-04-10T00:50:54;46.22;;;19.80;;
75993;SDS011;64680;53.800;9.988;2023-04-10T00:53:20;43.58;;;18.83;;
75993;SDS011;64680;53.800;9.988;2023-04-10T00:55:46;45.15;;;18.23;;
75993;SDS011;64680;53.800;9.988;2023-04-10T00:58:13;41.25;;;18.23;;
75993;SDS011;64680;53.800;9.988;2023-04-10T01:00:39;49.20;;;19.33;;
75993;SDS011;64680;53.800;9.988;2023-04-10T01:03:06;43.80;;;18.85;;
75993;SDS011;64680;53.800;9.988;2023-04-10T01:05:41;44.42;;;19.48;;
75993;SDS011;64680;53.800;9.988;2023-04-10T01:08:15;37.97;;;17.50;;
75993;SDS011;64680;53.800;9.988;2023-04-10T01:13:50;42.92;;;18.17;;
75993;SDS011;64680;53.800;9.988;2023-04-10T01:18:54;44.58;;;18.77;;
75993;SDS011;64680;53.800;9.988;2023-04-10T01:21:23;44.60;;;17.52;;
75993;SDS011;64680;53.800;9.988;2023-04-10T01:29:28;41.20;;;18.08;;
75993;SDS011;64680;53.800;9.988;2023-04-10T01:31:57;43.60;;;17.88;;
75993;SDS011;64680;53.800;9.988;2023-04-10T01:37:20;38.60;;;17.52;;
75993;SDS011;64680;53.800;9.988;2023-04-10T01:40:04;41.22;;;18.38;;
75993;SDS011;64680;53.800;9.988;2023-04-10T01:42:36;41.40;;;18.45;;
75993;SDS011;64680;53.800;9.988;2023-04-10T01:45:16;39.65;;;17.63;;
75993;SDS011;64680;53.800;9.988;2023-04-10T01:47:44;40.28;;;18.33;;
75993;SDS011;64680;53.800;9.988;2023-04-10T01:50:11;49.67;;;20.38;;
75993;SDS011;64680;53.800;9.988;2023-04-10T01:52:38;39.25;;;16.95;;
75993;SDS011;64680;53.800;9.988;2023-04-10T01:55:05;42.35;;;17.48;;
75993;SDS011;64680;53.800;9.988;2023-04-10T01:57:32;46.83;;;18.83;;
75993;SDS011;64680;53.800;9.988;2023-04-10T02:00:00;41.15;;;18.65;;
75993;SDS011;64680;53.800;9.988;2023-04-10T02:02:30;45.05;;;18.13;;
75993;SDS011;64680;53.800;9.988;2023-04-10T02:04:56;41.90;;;17.95;;
75993;SDS011;64680;53.800;9.988;2023-04-10T02:12:45;45.00;;;19.20;;
75993;SDS011;64680;53.800;9.988;2023-04-10T02:15:18;41.03;;;18.02;;
75993;SDS011;64680;53.800;9.988;2023-04-10T02:17:45;41.25;;;18.88;;
75993;SDS011;64680;53.800;9.988;2023-04-10T02:20:11;40.90;;;18.73;;
75993;SDS011;64680;53.800;9.988;2023-04-10T02:22:39;39.72;;;18.15;;
75993;SDS011;64680;53.800;9.988;2023-04-10T02:25:08;37.75;;;17.95;;
75993;SDS011;64680;53.800;9.988;2023-04-10T02:27:34;40.95;;;17.08;;
75993;SDS011;64680;53.800;9.988;2023-04-10T02:30:01;42.10;;;18.25;;
75993;SDS011;64680;53.800;9.988;2023-04-10T02:32:27;39.88;;;16.45;;
75993;SDS011;64680;53.800;9.988;2023-04-10T02:34:54;40.22;;;17.08;;
75993;SDS011;64680;53.800;9.988;2023-04-10T02:37:20;38.33;;;17.27;;
75993;SDS011;64680;53.800;9.988;2023-04-10T02:39:46;41.78;;;17.80;;
75993;SDS011;64680;53.800;9.988;2023-04-10T02:42:11;41.20;;;17.80;;
75993;SDS011;64680;53.800;9.988;2023-04-10T02:44:37;37.67;;;17.00;;
75993;SDS011;64680;53.800;9.988;2023-04-10T02:49:31;40.05;;;18.65;;
75993;SDS011;64680;53.800;9.988;2023-04-10T02:51:59;36.85;;;16.92;;
75993;SDS011;64680;53.800;9.988;2023-04-10T02:54:25;40.50;;;17.58;;
75993;SDS011;64680;53.800;9.988;2023-04-10T02:56:51;35.67;;;16.85;;
75993;SDS011;64680;53.800;9.988;2023-04-10T02:59:16;39.63;;;16.88;;
75993;SDS011;64680;53.800;9.988;2023-04-10T03:01:42;39.25;;;17.38;;
75993;SDS011;64680;53.800;9.988;2023-04-10T03:04:08;41.10;;;17.48;;
75993;SDS011;64680;53.800;9.988;2023-04-10T03:06:33;45.80;;;19.65;;
75993;SDS011;64680;53.800;9.988;2023-04-10T03:08:59;40.08;;;17.42;;
75993;SDS011;64680;53.800;9.988;2023-04-10T03:11:25;42.38;;;18.20;;
75993;SDS011;64680;53.800;9.988;2023-04-10T03:13:51;36.20;;;16.88;;
75993;SDS011;64680;53.800;9.988;2023-04-10T03:16:16;38.35;;;17.52;;
75993;SDS011;64680;53.800;9.988;2023-04-10T03:18:42;37.42;;;16.50;;
75993;SDS011;64680;53.800;9.988;2023-04-10T03:21:08;32.25;;;15.70;;
75993;SDS011;64680;53.800;9.988;2023-04-10T03:23:34;38.13;;;17.05;;
75993;SDS011;64680;53.800;9.988;2023-04-10T03:26:01;37.92;;;18.00;;
75993;SDS011;64680;53.800;9.988;2023-04-10T03:28:28;46.25;;;17.65;;
75993;SDS011;64680;53.800;9.988;2023-04-10T03:30:55;42.80;;;16.80;;
75993;SDS011;64680;53.800;9.988;2023-04-10T03:33:21;39.33;;;16.40;;
75993;SDS011;64680;53.800;9.988;2023-04-10T03:35:46;41.67;;;17.73;;
75993;SDS011;64680;53.800;9.988;2023-04-10T03:38:12;37.63;;;18.17;;
75993;SDS011;64680;53.800;9.988;2023-04-10T03:40:38;40.90;;;17.42;;
75993;SDS011;64680;53.800;9.988;2023-04-10T03:43:03;38.90;;;16.30;;
75993;SDS011;64680;53.800;9.988;2023-04-10T03:45:29;40.50;;;17.63;;
75993;SDS011;64680;53.800;9.988;2023-04-10T03:47:55;40.38;;;17.85;;
75993;SDS011;64680;53.800;9.988;2023-04-10T03:50:20;37.30;;;16.85;;
75993;SDS011;64680;53.800;9.988;2023-04-10T03:52:46;39.17;;;17.58;;
75993;SDS011;64680;53.800;9.988;2023-04-10T03:55:13;40.95;;;17.33;;
75993;SDS011;64680;53.800;9.988;2023-04-10T03:57:43;40.35;;;16.67;;
75993;SDS011;64680;53.800;9.988;2023-04-10T04:00:13;40.78;;;16.65;;
75993;SDS011;64680;53.800;9.988;2023-04-10T04:02:38;41.08;;;17.88;;
75993;SDS011;64680;53.800;9.988;2023-04-10T04:05:04;41.80;;;17.88;;
75993;SDS011;64680;53.800;9.988;2023-04-10T04:07:30;41.08;;;17.70;;
75993;SDS011;64680;53.800;9.988;2023-04-10T04:09:55;38.90;;;16.95;;
75993;SDS011;64680;53.800;9.988;2023-04-10T04:12:21;38.58;;;16.65;;
75993;SDS011;64680;53.800;9.988;2023-04-10T04:14:47;44.33;;;18.25;;
75993;SDS011;64680;53.800;9.988;2023-04-10T04:17:12;37.20;;;16.75;;
75993;SDS011;64680;53.800;9.988;2023-04-10T04:19:38;40.15;;;16.23;;
75993;SDS011;64680;53.800;9.988;2023-04-10T04:22:03;37.83;;;16.92;;
75993;SDS011;64680;53.800;9.988;2023-04-10T04:24:29;35.20;;;16.25;;
75993;SDS011;64680;53.800;9.988;2023-04-10T04:26:55;42.00;;;17.48;;
75993;SDS011;64680;53.800;9.988;2023-04-10T04:29:21;36.88;;;16.75;;
75993;SDS011;64680;53.800;9.988;2023-04-10T04:31:46;39.45;;;17.60;;
75993;SDS011;64680;53.800;9.988;2023-04-10T04:34:12;38.17;;;16.30;;
75993;SDS011;64680;53.800;9.988;2023-04-10T04:36:38;40.30;;;17.05;;
75993;SDS011;64680;53.800;9.988;2023-04-10T04:39:03;39.67;;;16.20;;
75993;SDS011;64680;53.800;9.988;2023-04-10T04:41:29;33.47;;;16.00;;
75993;SDS011;64680;53.800;9.988;2023-04-10T04:44:00;37.83;;;16.00;;
75993;SDS011;64680;53.800;9.988;2023-04-10T04:46:26;36.40;;;15.90;;
75993;SDS011;64680;53.800;9.988;2023-04-10T04:48:52;39.67;;;16.48;;
75993;SDS011;64680;53.800;9.988;2023-04-10T04:51:17;40.30;;;16.77;;
75993;SDS011;64680;53.800;9.988;2023-04-10T04:53:43;42.25;;;18.35;;
75993;SDS011;64680;53.800;9.988;2023-04-10T04:56:09;35.63;;;16.20;;
75993;SDS011;64680;53.800;9.988;2023-04-10T04:58:34;38.28;;;16.48;;
75993;SDS011;64680;53.800;9.988;2023-04-10T05:01:00;38.13;;;16.45;;
75993;SDS011;64680;53.800;9.988;2023-04-10T05:03:26;32.85;;;15.57;;
75993;SDS011;64680;53.800;9.988;2023-04-10T05:05:55;36.45;;;16.63;;
75993;SDS011;64680;53.800;9.988;2023-04-10T05:08:20;33.67;;;16.17;;
75993;SDS011;64680;53.800;9.988;2023-04-10T05:10:46;34.25;;;16.48;;
75993;SDS011;64680;53.800;9.988;2023-04-10T05:13:12;32.17;;;15.55;;
75993;SDS011;64680;53.800;9.988;2023-04-10T05:15:39;35.38;;;15.68;;
75993;SDS011;64680;53.800;9.988;2023-04-10T05:18:05;31.95;;;15.38;;
75993;SDS011;64680;53.800;9.988;2023-04-10T05:20:33;32.47;;;14.85;;
75993;SDS011;64680;53.800;9.988;2023-04-10T05:22:59;31.83;;;15.63;;
75993;SDS011;64680;53.800;9.988;2023-04-10T05:25:25;35.28;;;15.73;;
75993;SDS011;64680;53.800;9.988;2023-04-10T05:27:51;33.85;;;15.50;;
75993;SDS011;64680;53.800;9.988;2023-04-10T05:30:16;31.38;;;13.77;;
75993;SDS011;64680;53.800;9.988;2023-04-10T05:32:42;29.52;;;14.30;;
75993;SDS011;64680;53.800;9.988;2023-04-10T05:35:08;29.23;;;14.55;;
75993;SDS011;64680;53.800;9.988;2023-04-10T05:37:33;31.95;;;14.43;;
75993;SDS011;64680;53.800;9.988;2023-04-10T05:39:59;29.08;;;13.82;;
75993;SDS011;64680;53.800;9.988;2023-04-10T05:42:24;29.48;;;14.50;;
75993;SDS011;64680;53.800;9.988;2023-04-10T05:44:50;29.45;;;13.70;;
75993;SDS011;64680;53.800;9.988;2023-04-10T05:47:16;27.63;;;13.85;;
75993;SDS011;64680;53.800;9.988;2023-04-10T05:49:42;27.98;;;13.45;;
75993;SDS011;64680;53.800;9.988;2023-04-10T05:52:07;26.02;;;13.45;;
75993;SDS011;64680;53.800;9.988;2023-04-10T05:54:33;28.83;;;13.80;;
75993;SDS011;64680;53.800;9.988;2023-04-10T05:56:59;27.92;;;14.20;;
75993;SDS011;64680;53.800;9.988;2023-04-10T05:59:25;29.40;;;14.95;;
75993;SDS011;64680;53.800;9.988;2023-04-10T06:01:51;28.88;;;14.20;;
75993;SDS011;64680;53.800;9.988;2023-04-10T06:04:17;26.10;;;12.95;;
75993;SDS011;64680;53.800;9.988;2023-04-10T06:06:45;25.83;;;13.25;;
75993;SDS011;64680;53.800;9.988;2023-04-10T06:09:10;26.70;;;14.27;;
75993;SDS011;64680;53.800;9.988;2023-04-10T06:11:36;25.92;;;13.32;;
75993;SDS011;64680;53.800;9.988;2023-04-10T06:14:02;26.23;;;13.70;;
75993;SDS011;64680;53.800;9.988;2023-04-10T06:16:28;26.85;;;12.98;;
75993;SDS011;64680;53.800;9.988;2023-04-10T06:18:54;26.98;;;13.95;;
75993;SDS011;64680;53.800;9.988;2023-04-10T06:21:19;26.70;;;13.45;;
75993;SDS011;64680;53.800;9.988;2023-04-10T06:23:45;25.77;;;12.93;;
75993;SDS011;64680;53.800;9.988;2023-04-10T06:26:11;27.48;;;13.35;;
75993;SDS011;64680;53.800;9.988;2023-04-10T06:28:38;26.33;;;13.68;;
75993;SDS011;64680;53.800;9.988;2023-04-10T06:31:08;25.40;;;14.32;;
75993;SDS011;64680;53.800;9.988;2023-04-10T06:33:33;23.38;;;12.55;;
75993;SDS011;64680;53.800;9.988;2023-04-10T06:36:02;24.05;;;11.88;;
75993;SDS011;64680;53.800;9.988;2023-04-10T06:41:51;25.77;;;12.52;;
75993;SDS011;64680;53.800;9.988;2023-04-10T06:44:16;22.80;;;13.20;;
75993;SDS011;64680;53.800;9.988;2023-04-10T06:46:42;23.45;;;12.57;;
75993;SDS011;64680;53.800;9.988;2023-04-10T06:49:08;22.35;;;12.10;;
75993;SDS011;64680;53.800;9.988;2023-04-10T06:51:34;25.10;;;13.10;;
75993;SDS011;64680;53.800;9.988;2023-04-10T06:53:59;24.55;;;12.65;;
75993;SDS011;64680;53.800;9.988;2023-04-10T06:56:25;24.23;;;13.02;;
75993;SDS011;64680;53.800;9.988;2023-04-10T06:58:51;24.45;;;13.18;;
75993;SDS011;64680;53.800;9.988;2023-04-10T07:01:16;24.98;;;12.80;;
75993;SDS011;64680;53.800;9.988;2023-04-10T07:03:42;24.60;;;12.85;;
75993;SDS011;64680;53.800;9.988;2023-04-10T07:06:09;23.23;;;12.63;;
75993;SDS011;64680;53.800;9.988;2023-04-10T07:08:35;23.50;;;13.57;;
75993;SDS011;64680;53.800;9.988;2023-04-10T07:11:00;23.35;;;14.13;;
75993;SDS011;64680;53.800;9.988;2023-04-10T07:13:26;22.55;;;12.38;;
75993;SDS011;64680;53.800;9.988;2023-04-10T07:15:52;22.58;;;12.57;;
75993;SDS011;64680;53.800;9.988;2023-04-10T07:18:17;22.52;;;12.93;;
75993;SDS011;64680;53.800;9.988;2023-04-10T07:20:43;22.60;;;12.68;;
75993;SDS011;64680;53.800;9.988;2023-04-10T07:23:09;23.48;;;12.98;;
75993;SDS011;64680;53.800;9.988;2023-04-10T07:25:35;22.98;;;12.43;;
75993;SDS011;64680;53.800;9.988;2023-04-10T07:28:00;22.33;;;14.73;;
75993;SDS011;64680;53.800;9.988;2023-04-10T07:30:26;22.63;;;12.88;;
75993;SDS011;64680;53.800;9.988;2023-04-10T07:32:52;19.23;;;11.10;;
75993;SDS011;64680;53.800;9.988;2023-04-10T07:35:17;21.80;;;12.70;;
75993;SDS011;64680;53.800;9.988;2023-04-10T07:37:44;22.35;;;12.65;;
75993;SDS011;64680;53.800;9.988;2023-04-10T07:40:14;22.55;;;11.93;;
75993;SDS011;64680;53.800;9.988;2023-04-10T07:42:39;22.17;;;13.40;;
75993;SDS011;64680;53.800;9.988;2023-04-10T07:45:05;21.02;;;12.25;;
75993;SDS011;64680;53.800;9.988;2023-04-10T07:47:31;18.45;;;11.68;;
75993;SDS011;64680;53.800;9.988;2023-04-10T07:49:57;19.17;;;12.23;;
75993;SDS011;64680;53.800;9.988;2023-04-10T07:52:22;19.70;;;12.10;;
75993;SDS011;64680;53.800;9.988;2023-04-10T07:54:48;19.77;;;12.23;;
75993;SDS011;64680;53.800;9.988;2023-04-10T07:57:14;20.13;;;13.10;;
75993;SDS011;64680;53.800;9.988;2023-04-10T07:59:40;19.30;;;11.48;;
75993;SDS011;64680;53.800;9.988;2023-04-10T08:02:06;19.00;;;11.68;;
75993;SDS011;64680;53.800;9.988;2023-04-10T08:04:32;17.40;;;10.18;;
75993;SDS011;64680;53.800;9.988;2023-04-10T08:06:57;17.00;;;10.75;;
75993;SDS011;64680;53.800;9.988;2023-04-10T08:09:23;17.13;;;11.00;;
75993;SDS011;64680;53.800;9.988;2023-04-10T08:11:49;18.38;;;11.43;;
75993;SDS011;64680;53.800;9.988;2023-04-10T08:14:15;15.68;;;10.73;;
75993;SDS011;64680;53.800;9.988;2023-04-10T08:16:41;17.10;;;11.68;;
75993;SDS011;64680;53.800;9.988;2023-04-10T08:19:07;17.90;;;10.93;;
75993;SDS011;64680;53.800;9.988;2023-04-10T08:21:32;19.20;;;11.43;;
75993;SDS011;64680;53.800;9.988;2023-04-10T08:23:59;17.55;;;10.65;;
75993;SDS011;64680;53.800;9.988;2023-04-10T08:26:26;14.23;;;9.25;;
75993;SDS011;64680;53.800;9.988;2023-04-10T08:28:58;15.40;;;10.15;;
75993;SDS011;64680;53.800;9.988;2023-04-10T08:31:25;15.40;;;10.10;;
75993;SDS011;64680;53.800;9.988;2023-04-10T08:33:52;13.57;;;9.98;;
75993;SDS011;64680;53.800;9.988;2023-04-10T08:36:17;14.77;;;9.88;;
75993;SDS011;64680;53.800;9.988;2023-04-10T08:38:43;17.27;;;11.10;;
75993;SDS011;64680;53.800;9.988;2023-04-10T08:41:10;16.05;;;10.18;;
75993;SDS011;64680;53.800;9.988;2023-04-10T08:43:37;15.93;;;10.23;;
75993;SDS011;64680;53.800;9.988;2023-04-10T08:46:03;15.95;;;10.95;;
75993;SDS011;64680;53.800;9.988;2023-04-10T08:49:16;13.50;;;9.23;;
75993;SDS011;64680;53.800;9.988;2023-04-10T08:51:21;16.10;;;10.35;;
75993;SDS011;64680;53.800;9.988;2023-04-10T08:53:50;15.02;;;10.38;;
75993;SDS011;64680;53.800;9.988;2023-04-10T08:56:22;14.68;;;9.90;;
75993;SDS011;64680;53.800;9.988;2023-04-10T08:58:49;15.00;;;9.88;;
75993;SDS011;64680;53.800;9.988;2023-04-10T09:01:15;14.50;;;9.93;;
75993;SDS011;64680;53.800;9.988;2023-04-10T09:03:45;13.73;;;8.80;;
75993;SDS011;64680;53.800;9.988;2023-04-10T09:06:12;13.27;;;9.48;;
75993;SDS011;64680;53.800;9.988;2023-04-10T09:08:37;13.60;;;9.60;;
75993;SDS011;64680;53.800;9.988;2023-04-10T09:11:03;13.98;;;9.13;;
75993;SDS011;64680;53.800;9.988;2023-04-10T09:13:47;14.15;;;9.27;;
75993;SDS011;64680;53.800;9.988;2023-04-10T09:16:13;13.48;;;9.32;;
75993;SDS011;64680;53.800;9.988;2023-04-10T09:18:46;14.25;;;9.57;;
75993;SDS011;64680;53.800;9.988;2023-04-10T09:21:13;12.85;;;8.95;;
75993;SDS011;64680;53.800;9.988;2023-04-10T09:23:44;13.73;;;9.02;;
75993;SDS011;64680;53.800;9.988;2023-04-10T09:29:06;12.30;;;8.60;;
75993;SDS011;64680;53.800;9.988;2023-04-10T09:31:37;13.50;;;9.23;;
75993;SDS011;64680;53.800;9.988;2023-04-10T09:36:43;14.30;;;9.45;;
75993;SDS011;64680;53.800;9.988;2023-04-10T09:39:17;12.05;;;8.95;;
75993;SDS011;64680;53.800;9.988;2023-04-10T09:41:47;12.50;;;9.20;;
75993;SDS011;64680;53.800;9.988;2023-04-10T09:44:17;12.48;;;9.10;;
75993;SDS011;64680;53.800;9.988;2023-04-10T09:46:51;12.93;;;9.15;;
75993;SDS011;64680;53.800;9.988;2023-04-10T09:49:17;12.18;;;8.48;;
75993;SDS011;64680;53.800;9.988;2023-04-10T09:51:43;10.85;;;8.13;;
75993;SDS011;64680;53.800;9.988;2023-04-10T09:54:09;11.32;;;8.52;;
75993;SDS011;64680;53.800;9.988;2023-04-10T09:56:35;10.73;;;8.20;;
75993;SDS011;64680;53.800;9.988;2023-04-10T09:59:03;11.68;;;8.60;;
75993;SDS011;64680;53.800;9.988;2023-04-10T10:01:31;10.10;;;7.20;;
75993;SDS011;64680;53.800;9.988;2023-04-10T10:04:02;11.20;;;8.15;;
75993;SDS011;64680;53.800;9.988;2023-04-10T10:06:29;10.93;;;8.25;;
75993;SDS011;64680;53.800;9.988;2023-04-10T10:08:58;12.82;;;8.00;;
75993;SDS011;64680;53.800;9.988;2023-04-10T10:11:26;9.75;;;7.72;;
75993;SDS011;64680;53.800;9.988;2023-04-10T10:13:53;10.00;;;7.70;;
75993;SDS011;64680;53.800;9.988;2023-04-10T10:16:24;8.80;;;6.22;;
75993;SDS011;64680;53.800;9.988;2023-04-10T10:21:37;9.27;;;6.88;;
75993;SDS011;64680;53.800;9.988;2023-04-10T10:24:03;8.63;;;6.60;;
75993;SDS011;64680;53.800;9.988;2023-04-10T10:26:32;8.52;;;6.32;;
75993;SDS011;64680;53.800;9.988;2023-04-10T10:29:02;9.65;;;7.05;;
75993;SDS011;64680;53.800;9.988;2023-04-10T10:31:30;9.25;;;7.22;;
75993;SDS011;64680;53.800;9.988;2023-04-10T10:33:58;10.25;;;7.50;;
75993;SDS011;64680;53.800;9.988;2023-04-10T10:36:28;10.88;;;7.32;;
75993;SDS011;64680;53.800;9.988;2023-04-10T10:42:17;9.45;;;6.47;;
75993;SDS011;64680;53.800;9.988;2023-04-10T10:44:46;9.50;;;6.90;;
75993;SDS011;64680;53.800;9.988;2023-04-10T10:47:17;8.50;;;6.38;;
75993;SDS011;64680;53.800;9.988;2023-04-10T10:49:50;10.70;;;8.57;;
75993;SDS011;64680;53.800;9.988;2023-04-10T10:55:26;9.05;;;6.75;;
75993;SDS011;64680;53.800;9.988;2023-04-10T10:58:00;9.43;;;6.97;;
75993;SDS011;64680;53.800;9.988;2023-04-10T11:05:58;9.50;;;6.45;;
75993;SDS011;64680;53.800;9.988;2023-04-10T11:11:00;8.55;;;6.30;;
75993;SDS011;64680;53.800;9.988;2023-04-10T11:13:39;8.93;;;6.10;;
75993;SDS011;64680;53.800;9.988;2023-04-10T11:16:07;9.40;;;6.25;;
75993;SDS011;64680;53.800;9.988;2023-04-10T11:21:10;9.13;;;6.68;;
75993;SDS011;64680;53.800;9.988;2023-04-10T11:24:22;8.57;;;6.30;;
75993;SDS011;64680;53.800;9.988;2023-04-10T11:31:57;7.22;;;5.70;;
75993;SDS011;64680;53.800;9.988;2023-04-10T11:34:24;6.95;;;5.90;;
75993;SDS011;64680;53.800;9.988;2023-04-10T11:36:55;5.97;;;5.13;;
75993;SDS011;64680;53.800;9.988;2023-04-10T11:39:21;7.78;;;6.00;;
75993;SDS011;64680;53.800;9.988;2023-04-10T11:41:50;7.22;;;5.28;;
75993;SDS011;64680;53.800;9.988;2023-04-10T11:46:50;8.52;;;6.10;;
75993;SDS011;64680;53.800;9.988;2023-04-10T11:49:20;7.65;;;6.00;;
75993;SDS011;64680;53.800;9.988;2023-04-10T11:51:48;8.27;;;6.50;;
75993;SDS011;64680;53.800;9.988;2023-04-10T11:54:19;8.98;;;6.20;;
75993;SDS011;64680;53.800;9.988;2023-04-10T11:56:57;7.60;;;5.80;;
75993;SDS011;64680;53.800;9.988;2023-04-10T11:59:25;7.15;;;5.70;;
75993;SDS011;64680;53.800;9.988;2023-04-10T12:01:52;8.77;;;6.15;;
75993;SDS011;64680;53.800;9.988;2023-04-10T12:04:20;7.45;;;5.80;;
75993;SDS011;64680;53.800;9.988;2023-04-10T12:06:47;6.93;;;5.53;;
75993;SDS011;64680;53.800;9.988;2023-04-10T12:09:17;8.57;;;6.68;;
75993;SDS011;64680;53.800;9.988;2023-04-10T12:11:47;6.50;;;4.93;;
75993;SDS011;64680;53.800;9.988;2023-04-10T12:14:20;6.63;;;5.93;;
75993;SDS011;64680;53.800;9.988;2023-04-10T12:16:48;6.90;;;5.28;;
75993;SDS011;64680;53.800;9.988;2023-04-10T12:19:15;7.13;;;5.47;;
75993;SDS011;64680;53.800;9.988;2023-04-10T12:21:42;8.43;;;6.00;;
75993;SDS011;64680;53.800;9.988;2023-04-10T12:24:12;6.68;;;5.13;;
75993;SDS011;64680;53.800;9.988;2023-04-10T12:26:57;7.68;;;4.90;;
75993;SDS011;64680;53.800;9.988;2023-04-10T12:29:24;6.75;;;5.03;;
75993;SDS011;64680;53.800;9.988;2023-04-10T12:31:51;6.88;;;5.28;;
75993;SDS011;64680;53.800;9.988;2023-04-10T12:34:17;6.95;;;5.15;;
75993;SDS011;64680;53.800;9.988;2023-04-10T12:36:42;6.18;;;4.68;;
75993;SDS011;64680;53.800;9.988;2023-04-10T12:39:23;6.93;;;4.78;;
75993;SDS011;64680;53.800;9.988;2023-04-10T12:41:49;5.93;;;4.72;;
75993;SDS011;64680;53.800;9.988;2023-04-10T12:44:15;6.82;;;5.25;;
75993;SDS011;64680;53.800;9.988;2023-04-10T12:46:42;6.53;;;4.80;;
75993;SDS011;64680;53.800;9.988;2023-04-10T12:49:12;6.35;;;4.43;;
75993;SDS011;64680;53.800;9.988;2023-04-10T12:51:49;6.10;;;4.75;;
75993;SDS011;64680;53.800;9.988;2023-04-10T12:54:32;6.22;;;4.75;;
75993;SDS011;64680;53.800;9.988;2023-04-10T12:57:00;5.72;;;4.30;;
75993;SDS011;64680;53.800;9.988;2023-04-10T12:59:28;6.28;;;4.55;;
75993;SDS011;64680;53.800;9.988;2023-04-10T13:01:54;5.68;;;4.15;;
75993;SDS011;64680;53.800;9.988;2023-04-10T13:04:23;5.10;;;4.13;;
75993;SDS011;64680;53.800;9.988;2023-04-10T13:06:49;5.53;;;3.88;;
75993;SDS011;64680;53.800;9.988;2023-04-10T13:09:17;4.75;;;3.53;;
75993;SDS011;64680;53.800;9.988;2023-04-10T13:11:43;5.55;;;4.30;;
75993;SDS011;64680;53.800;9.988;2023-04-10T13:14:08;5.10;;;3.60;;
75993;SDS011;64680;53.800;9.988;2023-04-10T13:16:35;7.90;;;4.20;;
75993;SDS011;64680;53.800;9.988;2023-04-10T13:19:01;6.18;;;3.95;;
75993;SDS011;64680;53.800;9.988;2023-04-10T13:21:27;4.93;;;3.70;;
75993;SDS011;64680;53.800;9.988;2023-04-10T13:23:53;6.47;;;4.15;;
75993;SDS011;64680;53.800;9.988;2023-04-10T13:26:20;4.97;;;3.50;;
75993;SDS011;64680;53.800;9.988;2023-04-10T13:28:46;4.50;;;3.55;;
75993;SDS011;64680;53.800;9.988;2023-04-10T13:31:12;5.38;;;3.70;;
75993;SDS011;64680;53.800;9.988;2023-04-10T13:33:40;7.00;;;3.50;;
75993;SDS011;64680;53.800;9.988;2023-04-10T13:36:07;5.05;;;3.80;;
75993;SDS011;64680;53.800;9.988;2023-04-10T13:38:33;5.18;;;3.92;;
75993;SDS011;64680;53.800;9.988;2023-04-10T13:40:58;5.03;;;3.65;;
75993;SDS011;64680;53.800;9.988;2023-04-10T13:43:24;4.05;;;3.40;;
75993;SDS011;64680;53.800;9.988;2023-04-10T13:45:49;4.65;;;3.60;;
75993;SDS011;64680;53.800;9.988;2023-04-10T13:48:15;5.88;;;3.70;;
75993;SDS011;64680;53.800;9.988;2023-04-10T13:50:45;4.97;;;3.38;;
75993;SDS011;64680;53.800;9.988;2023-04-10T13:53:10;4.03;;;3.10;;
75993;SDS011;64680;53.800;9.988;2023-04-10T13:55:36;4.60;;;3.35;;
75993;SDS011;64680;53.800;9.988;2023-04-10T13:58:02;5.60;;;3.28;;
75993;SDS011;64680;53.800;9.988;2023-04-10T14:00:28;4.20;;;3.55;;
75993;SDS011;64680;53.800;9.988;2023-04-10T14:02:54;3.90;;;2.92;;
75993;SDS011;64680;53.800;9.988;2023-04-10T14:05:20;4.60;;;3.13;;
75993;SDS011;64680;53.800;9.988;2023-04-10T14:07:52;4.25;;;2.70;;
75993;SDS011;64680;53.800;9.988;2023-04-10T14:10:21;4.50;;;2.92;;
75993;SDS011;64680;53.800;9.988;2023-04-10T14:12:48;4.97;;;3.42;;
75993;SDS011;64680;53.800;9.988;2023-04-10T14:15:13;5.03;;;3.38;;
75993;SDS011;64680;53.800;9.988;2023-04-10T14:17:39;5.00;;;3.33;;
75993;SDS011;64680;53.800;9.988;2023-04-10T14:20:05;4.88;;;3.53;;
75993;SDS011;64680;53.800;9.988;2023-04-10T14:22:31;5.10;;;3.03;;
75993;SDS011;64680;53.800;9.988;2023-04-10T14:24:57;4.40;;;3.92;;
75993;SDS011;64680;53.800;9.988;2023-04-10T14:27:22;5.68;;;3.47;;
75993;SDS011;64680;53.800;9.988;2023-04-10T14:29:48;4.70;;;3.33;;
75993;SDS011;64680;53.800;9.988;2023-04-10T14:32:14;6.15;;;3.30;;
75993;SDS011;64680;53.800;9.988;2023-04-10T14:34:39;5.32;;;3.85;;
75993;SDS011;64680;53.800;9.988;2023-04-10T14:37:05;7.53;;;3.45;;
75993;SDS011;64680;53.800;9.988;2023-04-10T14:39:31;5.72;;;3.90;;
75993;SDS011;64680;53.800;9.988;2023-04-10T14:41:57;6.40;;;3.85;;
75993;SDS011;64680;53.800;9.988;2023-04-10T14:44:23;5.85;;;4.43;;
75993;SDS011;64680;53.800;9.988;2023-04-10T14:46:50;6.45;;;4.35;;
75993;SDS011;64680;53.800;9.988;2023-04-10T14:49:16;6.47;;;4.03;;
75993;SDS011;64680;53.800;9.988;2023-04-10T14:51:42;7.32;;;5.15;;
75993;SDS011;64680;53.800;9.988;2023-04-10T14:54:08;6.57;;;3.92;;
75993;SDS011;64680;53.800;9.988;2023-04-10T14:56:35;4.82;;;3.70;;
75993;SDS011;64680;53.800;9.988;2023-04-10T14:59:00;7.55;;;4.30;;
75993;SDS011;64680;53.800;9.988;2023-04-10T15:01:26;5.60;;;4.05;;
75993;SDS011;64680;53.800;9.988;2023-04-10T15:03:52;5.97;;;4.43;;
75993;SDS011;64680;53.800;9.988;2023-04-10T15:06:17;6.45;;;5.68;;
75993;SDS011;64680;53.800;9.988;2023-04-10T15:08:43;6.88;;;4.60;;
75993;SDS011;64680;53.800;9.988;2023-04-10T15:11:08;5.63;;;4.00;;
75993;SDS011;64680;53.800;9.988;2023-04-10T15:13:34;5.93;;;4.30;;
75993;SDS011;64680;53.800;9.988;2023-04-10T15:16:01;6.03;;;3.90;;
75993;SDS011;64680;53.800;9.988;2023-04-10T15:18:27;7.15;;;4.90;;
75993;SDS011;64680;53.800;9.988;2023-04-10T15:20:53;6.07;;;4.63;;
75993;SDS011;64680;53.800;9.988;2023-04-10T15:23:20;7.57;;;4.90;;
75993;SDS011;64680;53.800;9.988;2023-04-10T15:25:46;6.53;;;4.70;;
75993;SDS011;64680;53.800;9.988;2023-04-10T15:28:11;5.97;;;4.72;;
75993;SDS011;64680;53.800;9.988;2023-04-10T15:30:37;6.38;;;4.90;;